Time;durP1;ratioP1;P1;durP2;ratioP2;P2;SDS_P1;SDS_P2;PMS_P1;PMS_P2;Temp;Humidity;BMP_temperature;BMP_pressure;BME280_temperature;BME280_humidity;BME280_pressure;Samples;Min_cycle;Max_cycle;Signal;HPM_P1;HPM_P2
2021/10/20 00:02:20;;;;;;;;;;;16.40;92.20;;;;;;4317530;33;20100;-83
2021/10/20 00:04:55;;;;;;;;;;;16.40;92.30;;;;;;4330231;33;43278;-82
2021/10/20 00:07:25;;;;;;;;;;;16.40;92.40;;;;;;4330102;33;42681;-82
2021/10/20 00:09:57;;;;;;;;;;;16.40;92.50;;;;;;4317061;33;44613;-83
2021/10/20 00:12:24;;;;;;;;;;;16.40;92.40;;;;;;4316719;33;42704;-82
2021/10/20 00:14:57;;;;;;;;;;;16.40;92.20;;;;;;4330178;33;42391;-82
2021/10/20 00:17:30;;;;;;;;;;;16.40;92.40;;;;;;4331714;33;42937;-82
2021/10/20 00:20:06;;;;;;;;;;;16.40;92.30;;;;;;4320004;33;43498;-84
2021/10/20 00:22:37;;;;;;;;;;;16.40;92.20;;;;;;4319587;33;42855;-82
2021/10/20 00:25:08;;;;;;;;;;;16.40;92.30;;;;;;4319796;33;44714;-82
2021/10/20 00:27:35;;;;;;;;;;;16.40;92.40;;;;;;4332520;33;42301;-83
2021/10/20 00:30:03;;;;;;;;;;;16.40;92.10;;;;;;4332974;33;43968;-83
2021/10/20 00:32:35;;;;;;;;;;;16.40;92.20;;;;;;4332319;33;43765;-83
2021/10/20 00:35:05;;;;;;;;;;;16.30;92.10;;;;;;4332773;33;43320;-83
2021/10/20 00:37:33;;;;;;;;;;;16.40;92.10;;;;;;4332808;33;44706;-83
2021/10/20 00:40:03;;;;;;;;;;;16.40;92.20;;;;;;4332265;33;42554;-82
2021/10/20 00:42:34;;;;;;;;;;;16.40;92.20;;;;;;4332667;33;43023;-83
2021/10/20 00:45:05;;;;;;;;;;;16.30;92.10;;;;;;4332904;33;44256;-83
2021/10/20 00:47:38;;;;;;;;;;;16.30;92.20;;;;;;4332201;33;42929;-83
2021/10/20 00:50:11;;;;;;;;;;;16.40;92.10;;;;;;4332600;33;44634;-82
2021/10/20 00:52:38;;;;;;;;;;;16.40;92.10;;;;;;4331599;33;43155;-82
2021/10/20 00:55:05;;;;;;;;;;;16.30;92.10;;;;;;4332028;33;44062;-83
2021/10/20 00:57:37;;;;;;;;;;;16.30;92.10;;;;;;4332374;33;44627;-83
2021/10/20 01:00:06;;;;;;;;;;;16.40;92.10;;;;;;4332252;33;42792;-83
2021/10/20 01:02:35;;;;;;;;;;;16.30;92.00;;;;;;4331862;33;20040;-82
2021/10/20 01:05:09;;;;;;;;;;;16.30;92.10;;;;;;4332219;33;43824;-84
2021/10/20 01:07:36;;;;;;;;;;;16.30;92.00;;;;;;4319110;33;44193;-83
2021/10/20 01:10:04;;;;;;;;;;;16.30;91.90;;;;;;4332663;33;43487;-82
2021/10/20 01:12:37;;;;;;;;;;;16.20;91.90;;;;;;4332020;33;42842;-83
2021/10/20 01:15:08;;;;;;;;;;;16.30;91.90;;;;;;4332331;33;42598;-82
2021/10/20 01:17:41;;;;;;;;;;;16.20;91.90;;;;;;4332168;33;44239;-83
2021/10/20 01:20:20;;;;;;;;;;;16.20;91.90;;;;;;4319386;33;44122;-81
2021/10/20 01:22:50;;;;;;;;;;;16.20;91.90;;;;;;4331758;33;43397;-84
2021/10/20 01:25:22;;;;;;;;;;;16.20;91.90;;;;;;4318713;33;42801;-83
2021/10/20 01:27:52;;;;;;;;;;;16.20;91.90;;;;;;4331131;33;43314;-82
2021/10/20 01:30:19;;;;;;;;;;;16.20;91.90;;;;;;4332053;33;43314;-82
2021/10/20 01:32:58;;;;;;;;;;;16.10;91.80;;;;;;4319728;33;20100;-83
2021/10/20 01:35:32;;;;;;;;;;;16.20;91.70;;;;;;4332118;33;44561;-82
2021/10/20 01:38:06;;;;;;;;;;;16.10;91.70;;;;;;4332038;33;42674;-83
2021/10/20 01:40:36;;;;;;;;;;;16.10;91.70;;;;;;4331995;33;43535;-81
2021/10/20 01:43:03;;;;;;;;;;;16.20;91.90;;;;;;4331746;33;44323;-82
2021/10/20 01:45:38;;;;;;;;;;;16.10;91.90;;;;;;4331338;33;42767;-82
2021/10/20 01:48:08;;;;;;;;;;;16.10;91.80;;;;;;4331982;33;43529;-82
2021/10/20 01:50:35;;;;;;;;;;;16.10;91.90;;;;;;4331731;33;42646;-82
2021/10/20 01:53:13;;;;;;;;;;;16.10;91.80;;;;;;4318329;33;43883;-82
2021/10/20 01:55:51;;;;;;;;;;;16.10;91.80;;;;;;4318536;33;44215;-83
2021/10/20 01:58:18;;;;;;;;;;;16.10;91.70;;;;;;4332065;33;43888;-82
2021/10/20 02:00:46;;;;;;;;;;;16.10;91.90;;;;;;4318569;33;43871;-81
2021/10/20 02:03:16;;;;;;;;;;;16.10;91.90;;;;;;4319452;33;20044;-83
2021/10/20 02:05:45;;;;;;;;;;;16.10;91.80;;;;;;4331485;33;43613;-82
2021/10/20 02:08:15;;;;;;;;;;;16.10;91.80;;;;;;4331519;33;43260;-85
2021/10/20 02:10:45;;;;;;;;;;;16.10;91.90;;;;;;4331399;33;44566;-82
2021/10/20 02:13:21;;;;;;;;;;;16.10;91.90;;;;;;4318051;33;46033;-81
2021/10/20 02:15:54;;;;;;;;;;;16.10;91.90;;;;;;4318128;33;43915;-82
2021/10/20 02:18:27;;;;;;;;;;;16.10;92.00;;;;;;4317655;33;44854;-82
2021/10/20 02:20:56;;;;;;;;;;;16.10;91.90;;;;;;4317721;33;42550;-83
2021/10/20 02:23:29;;;;;;;;;;;16.10;92.00;;;;;;4330951;33;43481;-82
2021/10/20 02:25:59;;;;;;;;;;;16.10;92.00;;;;;;4331517;33;44793;-83
2021/10/20 02:28:32;;;;;;;;;;;16.10;92.00;;;;;;4317616;33;43508;-82
2021/10/20 02:31:05;;;;;;;;;;;16.10;92.00;;;;;;4330795;33;42820;-83
2021/10/20 02:33:38;;;;;;;;;;;16.10;92.00;;;;;;4331695;33;20012;-83
2021/10/20 02:36:10;;;;;;;;;;;16.00;92.00;;;;;;4330087;33;44770;-83
2021/10/20 02:38:40;;;;;;;;;;;16.10;92.00;;;;;;4330910;33;42654;-83
2021/10/20 02:41:13;;;;;;;;;;;16.10;92.10;;;;;;4330239;33;44334;-82
2021/10/20 02:43:46;;;;;;;;;;;16.10;92.00;;;;;;4317348;33;43560;-82
2021/10/20 02:46:13;;;;;;;;;;;16.10;92.00;;;;;;4317462;33;44216;-83
2021/10/20 02:48:42;;;;;;;;;;;16.10;92.00;;;;;;4330961;33;43834;-81
2021/10/20 02:51:11;;;;;;;;;;;16.00;92.10;;;;;;4317402;33;43168;-82
2021/10/20 02:53:41;;;;;;;;;;;16.10;92.10;;;;;;4331090;33;44148;-82
2021/10/20 02:56:08;;;;;;;;;;;16.10;92.10;;;;;;4330893;33;43671;-83
2021/10/20 02:58:35;;;;;;;;;;;16.10;92.10;;;;;;4330448;33;43866;-82
2021/10/20 03:01:05;;;;;;;;;;;16.10;92.10;;;;;;4317366;33;43473;-82
2021/10/20 03:03:38;;;;;;;;;;;16.00;92.10;;;;;;4331297;33;20456;-82
2021/10/20 03:06:06;;;;;;;;;;;16.00;92.10;;;;;;4330931;33;43906;-82
2021/10/20 03:08:41;;;;;;;;;;;16.00;92.20;;;;;;4330229;33;44023;-83
2021/10/20 03:11:11;;;;;;;;;;;16.00;92.20;;;;;;4330551;33;42680;-82
2021/10/20 03:13:38;;;;;;;;;;;16.00;92.20;;;;;;4330417;33;42768;-82
2021/10/20 03:16:06;;;;;;;;;;;16.00;92.20;;;;;;4317124;33;42902;-82
2021/10/20 03:18:39;;;;;;;;;;;16.00;92.30;;;;;;4330471;33;42168;-81
2021/10/20 03:21:08;;;;;;;;;;;15.90;92.30;;;;;;4330624;33;43469;-82
2021/10/20 03:23:38;;;;;;;;;;;15.90;92.20;;;;;;4317382;33;43856;-82
2021/10/20 03:26:08;;;;;;;;;;;15.90;92.20;;;;;;4330175;33;43027;-81
2021/10/20 03:28:38;;;;;;;;;;;15.90;92.30;;;;;;4316911;33;45677;-82
2021/10/20 03:31:05;;;;;;;;;;;15.90;92.30;;;;;;4330052;33;42787;-82
2021/10/20 03:33:41;;;;;;;;;;;15.90;92.40;;;;;;4318297;33;20040;-81
2021/10/20 03:36:13;;;;;;;;;;;15.80;92.40;;;;;;4317183;33;44015;-82
2021/10/20 03:38:43;;;;;;;;;;;15.80;92.40;;;;;;4330540;33;44329;-82
2021/10/20 03:41:22;;;;;;;;;;;15.90;92.40;;;;;;4330120;33;44069;-82
2021/10/20 03:43:52;;;;;;;;;;;15.90;92.40;;;;;;4329319;33;42260;-81
2021/10/20 03:46:22;;;;;;;;;;;15.90;92.40;;;;;;4330428;33;43517;-81
2021/10/20 03:48:52;;;;;;;;;;;15.90;92.50;;;;;;4330033;33;42902;-81
2021/10/20 03:51:21;;;;;;;;;;;15.90;92.50;;;;;;4330342;33;42285;-82
2021/10/20 03:53:51;;;;;;;;;;;15.80;92.50;;;;;;4320500;33;44154;-81
2021/10/20 03:56:20;;;;;;;;;;;15.90;92.60;;;;;;4333403;33;44472;-81
2021/10/20 03:58:53;;;;;;;;;;;15.90;92.50;;;;;;4319556;33;44756;-81
2021/10/20 04:01:23;;;;;;;;;;;15.80;92.50;;;;;;4332304;33;43475;-81
2021/10/20 04:03:53;;;;;;;;;;;15.90;92.50;;;;;;4333752;33;20399;-81
2021/10/20 04:06:27;;;;;;;;;;;15.80;92.50;;;;;;4333101;33;44447;-81
2021/10/20 04:08:57;;;;;;;;;;;15.90;92.60;;;;;;4320037;33;43034;-82
2021/10/20 04:11:32;;;;;;;;;;;15.90;92.60;;;;;;4332011;33;43497;-82
2021/10/20 04:14:05;;;;;;;;;;;15.80;92.60;;;;;;4319824;33;43961;-83
2021/10/20 04:16:35;;;;;;;;;;;15.80;92.60;;;;;;4319585;33;43927;-81
2021/10/20 04:19:10;;;;;;;;;;;15.80;92.60;;;;;;4319487;33;43035;-82
2021/10/20 04:21:43;;;;;;;;;;;15.80;92.60;;;;;;4319392;33;44660;-82
2021/10/20 04:24:10;;;;;;;;;;;15.80;92.70;;;;;;4332880;33;43016;-81
2021/10/20 04:26:37;;;;;;;;;;;15.80;92.70;;;;;;4332598;33;42701;-83
2021/10/20 04:29:09;;;;;;;;;;;15.80;92.80;;;;;;4332833;33;43484;-82
2021/10/20 04:31:42;;;;;;;;;;;15.80;92.80;;;;;;4333124;33;43482;-82
2021/10/20 04:34:20;;;;;;;;;;;15.80;92.80;;;;;;4333812;33;20016;-83
2021/10/20 04:36:53;;;;;;;;;;;15.80;92.80;;;;;;4319638;33;43879;-82
2021/10/20 04:39:20;;;;;;;;;;;15.80;92.90;;;;;;4319721;33;43593;-82
2021/10/20 04:41:50;;;;;;;;;;;15.80;92.90;;;;;;4332634;33;45148;-81
2021/10/20 04:44:23;;;;;;;;;;;15.70;93.00;;;;;;4319864;33;43554;-81
2021/10/20 04:46:55;;;;;;;;;;;15.70;93.00;;;;;;4319333;33;43877;-81
2021/10/20 04:49:26;;;;;;;;;;;15.70;93.10;;;;;;4332557;33;45675;-82
2021/10/20 04:51:53;;;;;;;;;;;15.70;93.10;;;;;;4332161;33;43268;-82
2021/10/20 04:54:23;;;;;;;;;;;15.70;93.20;;;;;;4319469;33;44005;-82
2021/10/20 04:56:52;;;;;;;;;;;15.70;93.10;;;;;;4319388;33;43199;-81
2021/10/20 04:59:27;;;;;;;;;;;15.70;93.10;;;;;;4332007;33;43654;-81
2021/10/20 05:01:57;;;;;;;;;;;15.70;93.10;;;;;;4332118;33;44287;-81
2021/10/20 05:04:24;;;;;;;;;;;15.70;93.10;;;;;;4332747;33;20020;-81
2021/10/20 05:06:51;;;;;;;;;;;15.70;93.20;;;;;;4332025;33;43684;-81
2021/10/20 05:09:22;;;;;;;;;;;15.70;93.10;;;;;;4331923;33;43901;-81
2021/10/20 05:11:52;;;;;;;;;;;15.70;93.20;;;;;;4331796;33;42683;-81
2021/10/20 05:14:20;;;;;;;;;;;15.80;93.20;;;;;;4319217;33;44194;-82
2021/10/20 05:16:50;;;;;;;;;;;15.70;93.10;;;;;;4319330;33;43593;-81
2021/10/20 05:19:20;;;;;;;;;;;15.80;93.20;;;;;;4331963;33;42871;-81
2021/10/20 05:21:49;;;;;;;;;;;15.80;93.20;;;;;;4331826;33;42821;-82
2021/10/20 05:24:19;;;;;;;;;;;15.70;93.20;;;;;;4332192;33;43606;-81
2021/10/20 05:26:50;;;;;;;;;;;15.80;93.30;;;;;;4318510;33;43881;-81
2021/10/20 05:29:17;;;;;;;;;;;15.70;93.30;;;;;;4318593;33;43802;-81
2021/10/20 05:31:50;;;;;;;;;;;15.80;93.30;;;;;;4331595;33;43288;-81
2021/10/20 05:34:20;;;;;;;;;;;15.70;93.20;;;;;;4331679;33;42105;-81
2021/10/20 05:36:47;;;;;;;;;;;15.70;93.30;;;;;;4318347;33;43334;-81
2021/10/20 05:39:19;;;;;;;;;;;15.70;93.40;;;;;;4319460;33;43747;-81
2021/10/20 05:41:55;;;;;;;;;;;15.70;93.40;;;;;;4318246;33;43045;-81
2021/10/20 05:44:22;;;;;;;;;;;15.70;93.40;;;;;;4331765;33;43498;-81
2021/10/20 05:46:49;;;;;;;;;;;15.70;93.40;;;;;;4331347;33;44321;-81
2021/10/20 05:49:23;;;;;;;;;;;15.70;93.50;;;;;;4318546;33;43455;-81
2021/10/20 05:51:53;;;;;;;;;;;15.70;93.50;;;;;;4330748;33;42351;-82
2021/10/20 05:54:27;;;;;;;;;;;15.70;93.60;;;;;;4318334;33;44052;-81
2021/10/20 05:57:02;;;;;;;;;;;15.70;93.50;;;;;;4330413;33;42774;-81
2021/10/20 05:59:33;;;;;;;;;;;15.70;93.50;;;;;;4318533;33;44731;-81
2021/10/20 06:02:03;;;;;;;;;;;15.70;93.50;;;;;;4330149;33;44932;-81
2021/10/20 06:04:35;;;;;;;;;;;15.80;93.60;;;;;;4331464;33;44135;-81
2021/10/20 06:07:07;;;;;;;;;;;15.80;93.60;;;;;;4332244;33;19993;-81
2021/10/20 06:09:49;;;;;;;;;;;15.80;93.70;;;;;;4331462;33;44683;-81
2021/10/20 06:12:25;;;;;;;;;;;15.80;93.70;;;;;;4330392;33;43847;-80
2021/10/20 06:15:06;;;;;;;;;;;15.80;93.70;;;;;;4330816;33;43438;-80
2021/10/20 06:18:01;;;;;;;;;;;15.70;93.80;;;;;;4320049;33;45262;-81
2021/10/20 06:20:43;;;;;;;;;;;15.70;93.80;;;;;;4318176;33;43796;-81
2021/10/20 06:23:22;;;;;;;;;;;15.70;93.80;;;;;;4330130;33;43464;-82
2021/10/20 06:25:57;;;;;;;;;;;15.70;93.90;;;;;;4317909;33;45119;-81
2021/10/20 06:28:25;;;;;;;;;;;15.70;93.90;;;;;;4329900;33;43094;-81
2021/10/20 06:31:03;;;;;;;;;;;15.70;94.00;;;;;;4331124;33;44813;-82
2021/10/20 06:33:41;;;;;;;;;;;15.70;93.90;;;;;;4331275;33;43847;-81
2021/10/20 06:36:41;;;;;;;;;;;15.70;93.90;;;;;;4317931;33;42916;-81
2021/10/20 06:39:20;;;;;;;;;;;15.70;94.00;;;;;;4331249;33;20001;-81
2021/10/20 06:41:55;;;;;;;;;;;15.70;94.00;;;;;;4317841;33;45063;-81
2021/10/20 06:44:22;;;;;;;;;;;15.70;94.10;;;;;;4331047;33;43825;-81
2021/10/20 06:47:01;;;;;;;;;;;15.70;94.10;;;;;;4318097;33;46005;-81
2021/10/20 06:49:34;;;;;;;;;;;15.70;94.10;;;;;;4330520;33;42663;-81
2021/10/20 06:52:10;;;;;;;;;;;15.70;94.10;;;;;;4317355;33;43060;-81
2021/10/20 06:54:45;;;;;;;;;;;15.70;94.10;;;;;;4329859;33;43896;-81
2021/10/20 06:57:13;;;;;;;;;;;15.70;94.10;;;;;;4317946;33;45887;-81
2021/10/20 06:59:45;;;;;;;;;;;15.70;94.10;;;;;;4330457;33;43455;-82
2021/10/20 07:02:23;;;;;;;;;;;15.70;94.10;;;;;;4317564;33;46046;-80
2021/10/20 07:04:59;;;;;;;;;;;15.70;94.10;;;;;;4329656;33;43917;-81
2021/10/20 07:07:41;;;;;;;;;;;15.80;94.00;;;;;;4330745;33;45577;-81
2021/10/20 07:10:19;;;;;;;;;;;15.80;94.10;;;;;;4331172;33;20005;-81
2021/10/20 07:12:57;;;;;;;;;;;15.80;94.10;;;;;;4330252;33;44236;-81
2021/10/20 07:15:36;;;;;;;;;;;15.80;94.10;;;;;;4329675;33;44184;-81
2021/10/20 07:18:14;;;;;;;;;;;15.70;94.10;;;;;;4329924;33;43450;-81
2021/10/20 07:20:53;;;;;;;;;;;15.80;94.10;;;;;;4329661;33;44211;-80
2021/10/20 07:23:26;;;;;;;;;;;15.80;94.10;;;;;;4330564;33;44801;-83
2021/10/20 07:25:54;;;;;;;;;;;15.70;94.40;;;;;;4329521;33;44054;-81
2021/10/20 07:28:27;;;;;;;;;;;15.70;94.10;;;;;;4330302;33;43486;-81
2021/10/20 07:31:00;;;;;;;;;;;15.70;94.10;;;;;;4330528;33;43645;-81
2021/10/20 07:33:38;;;;;;;;;;;15.80;94.10;;;;;;4330575;33;43978;-82
2021/10/20 07:36:14;;;;;;;;;;;15.80;94.10;;;;;;4317695;33;43024;-81
2021/10/20 07:38:44;;;;;;;;;;;15.70;94.10;;;;;;4330064;33;43979;-81
2021/10/20 07:41:20;;;;;;;;;;;15.70;94.10;;;;;;4318540;33;20359;-81
2021/10/20 07:43:59;;;;;;;;;;;15.70;94.10;;;;;;4329349;33;42996;-81
2021/10/20 07:46:29;;;;;;;;;;;15.80;94.10;;;;;;4317221;33;43777;-81
2021/10/20 07:48:58;;;;;;;;;;;15.80;94.20;;;;;;4329990;33;42972;-82
2021/10/20 07:51:31;;;;;;;;;;;15.80;94.20;;;;;;4316825;33;44320;-81
2021/10/20 07:54:04;;;;;;;;;;;15.80;94.20;;;;;;4329367;33;45746;-82
2021/10/20 07:56:39;;;;;;;;;;;15.80;94.20;;;;;;4330222;33;43494;-81
2021/10/20 07:59:18;;;;;;;;;;;15.80;94.20;;;;;;4329258;33;44869;-82
2021/10/20 08:01:54;;;;;;;;;;;15.80;94.20;;;;;;4330154;33;42862;-81
2021/10/20 08:04:33;;;;;;;;;;;15.80;94.20;;;;;;4328684;33;45432;-81
2021/10/20 08:07:05;;;;;;;;;;;15.80;94.20;;;;;;4317343;33;43482;-81
2021/10/20 08:09:38;;;;;;;;;;;15.90;94.20;;;;;;4329912;33;43797;-81
2021/10/20 08:12:13;;;;;;;;;;;15.80;94.20;;;;;;4317810;33;20474;-80
2021/10/20 08:14:41;;;;;;;;;;;15.90;94.20;;;;;;4330180;33;42999;-82
2021/10/20 08:17:19;;;;;;;;;;;15.90;94.20;;;;;;4330000;33;44620;-81
2021/10/20 08:19:55;;;;;;;;;;;15.90;94.20;;;;;;4330196;33;45818;-81
2021/10/20 08:22:27;;;;;;;;;;;15.80;94.30;;;;;;4316950;33;43920;-80
2021/10/20 08:25:03;;;;;;;;;;;15.80;94.40;;;;;;4329070;33;44377;-81
2021/10/20 08:27:41;;;;;;;;;;;15.80;94.40;;;;;;4330135;33;44962;-81
2021/10/20 08:30:21;;;;;;;;;;;15.80;94.70;;;;;;4328699;33;42761;-81
2021/10/20 08:32:59;;;;;;;;;;;15.80;94.70;;;;;;4330182;33;43563;-81
2021/10/20 08:35:26;;;;;;;;;;;15.70;94.80;;;;;;4330576;33;44018;-80
2021/10/20 08:38:05;;;;;;;;;;;15.70;94.90;;;;;;4318793;33;43262;-82
2021/10/20 08:40:58;;;;;;;;;;;15.70;95.00;;;;;;4331810;33;44005;-81
2021/10/20 08:43:28;;;;;;;;;;;15.70;95.20;;;;;;4319580;33;43178;-81
2021/10/20 08:45:56;;;;;;;;;;;15.70;95.20;;;;;;4331658;33;44582;-81
2021/10/20 08:48:31;;;;;;;;;;;15.70;95.40;;;;;;4319666;33;44394;-81
2021/10/20 08:51:04;;;;;;;;;;;15.70;95.40;;;;;;4319395;33;44850;-80
2021/10/20 08:53:42;;;;;;;;;;;15.70;95.30;;;;;;4319660;33;43725;-81
2021/10/20 08:56:24;;;;;;;;;;;15.70;95.30;;;;;;4318894;33;44623;-81
2021/10/20 08:59:00;;;;;;;;;;;15.70;95.30;;;;;;4319717;33;43818;-81
2021/10/20 09:01:33;;;;;;;;;;;15.70;95.30;;;;;;4331279;33;43474;-81
2021/10/20 09:04:19;;;;;;;;;;;15.70;95.40;;;;;;4319292;33;45869;-81
2021/10/20 09:06:47;;;;;;;;;;;15.70;95.40;;;;;;4331482;33;42983;-81
2021/10/20 09:09:22;;;;;;;;;;;15.70;95.40;;;;;;4319455;33;45619;-81
2021/10/20 09:11:52;;;;;;;;;;;15.70;95.50;;;;;;4319193;33;44353;-81
2021/10/20 09:14:29;;;;;;;;;;;15.80;95.60;;;;;;4332772;33;19993;-82
2021/10/20 09:17:11;;;;;;;;;;;15.80;95.50;;;;;;4332298;33;43786;-81
2021/10/20 09:19:44;;;;;;;;;;;15.80;95.50;;;;;;4332287;33;45341;-81
2021/10/20 09:22:17;;;;;;;;;;;15.80;95.60;;;;;;4331199;33;46018;-80
2021/10/20 09:24:50;;;;;;;;;;;15.80;95.60;;;;;;4318665;33;45061;-81
2021/10/20 09:27:24;;;;;;;;;;;15.90;95.70;;;;;;4330986;33;43953;-82
2021/10/20 09:30:11;;;;;;;;;;;15.90;95.60;;;;;;4332361;33;44215;-80
2021/10/20 09:32:38;;;;;;;;;;;15.90;95.60;;;;;;4330926;33;42608;-81
2021/10/20 09:35:10;;;;;;;;;;;16.00;95.50;;;;;;4318347;33;45798;-81
2021/10/20 09:37:38;;;;;;;;;;;16.00;95.60;;;;;;4330833;33;44107;-81
2021/10/20 09:40:18;;;;;;;;;;;16.00;95.60;;;;;;4331579;33;43524;-81
2021/10/20 09:42:53;;;;;;;;;;;16.10;95.60;;;;;;4330836;33;44989;-81
2021/10/20 09:45:24;;;;;;;;;;;16.10;95.60;;;;;;4331668;33;20048;-81
2021/10/20 09:47:55;;;;;;;;;;;16.10;95.60;;;;;;4330689;33;45588;-81
2021/10/20 09:50:57;;;;;;;;;;;16.10;95.50;;;;;;4331848;33;45796;-81
2021/10/20 09:53:29;;;;;;;;;;;16.10;95.60;;;;;;4318406;33;44605;-82
2021/10/20 09:56:01;;;;;;;;;;;16.20;95.60;;;;;;4331976;33;44555;-81
2021/10/20 09:58:34;;;;;;;;;;;16.20;95.60;;;;;;4331606;33;43013;-81
2021/10/20 10:01:02;;;;;;;;;;;16.20;95.60;;;;;;4318368;33;42837;-81
2021/10/20 10:03:35;;;;;;;;;;;16.20;95.50;;;;;;4331011;33;44164;-81
2021/10/20 10:06:02;;;;;;;;;;;16.30;95.60;;;;;;4331625;33;44180;-81
2021/10/20 10:08:35;;;;;;;;;;;16.30;95.60;;;;;;4331620;33;43372;-82
2021/10/20 10:11:08;;;;;;;;;;;16.30;95.60;;;;;;4331529;33;43977;-82
2021/10/20 10:13:41;;;;;;;;;;;16.30;95.60;;;;;;4318534;33;43465;-81
2021/10/20 10:16:09;;;;;;;;;;;16.30;95.60;;;;;;4332258;33;20040;-81
2021/10/20 10:18:37;;;;;;;;;;;16.30;95.60;;;;;;4330891;33;44902;-82
2021/10/20 10:21:23;;;;;;;;;;;16.30;96.00;;;;;;4317849;33;44889;-81
2021/10/20 10:23:55;;;;;;;;;;;16.30;95.70;;;;;;4317855;33;44050;-82
2021/10/20 10:26:33;;;;;;;;;;;16.30;95.70;;;;;;4331292;33;46038;-81
2021/10/20 10:29:11;;;;;;;;;;;16.30;95.70;;;;;;4330882;33;43740;-81
2021/10/20 10:31:45;;;;;;;;;;;16.30;95.70;;;;;;4317989;33;43874;-82
2021/10/20 10:34:21;;;;;;;;;;;16.30;95.70;;;;;;4331201;33;44028;-81
2021/10/20 10:36:59;;;;;;;;;;;16.40;95.80;;;;;;4330911;33;43288;-81
2021/10/20 10:39:30;;;;;;;;;;;16.30;95.70;;;;;;4317483;33;42825;-82
2021/10/20 10:41:59;;;;;;;;;;;16.30;95.80;;;;;;4330088;33;44412;-82
2021/10/20 10:44:44;;;;;;;;;;;16.30;95.80;;;;;;4330015;33;45497;-82
2021/10/20 10:47:26;;;;;;;;;;;16.30;95.90;;;;;;4329777;33;42708;-81
2021/10/20 10:49:55;;;;;;;;;;;16.30;95.90;;;;;;4331096;33;43254;-81
2021/10/20 10:52:29;;;;;;;;;;;16.30;95.90;;;;;;4330870;33;44177;-81
2021/10/20 10:55:00;;;;;;;;;;;16.30;95.90;;;;;;4317712;33;44155;-81
2021/10/20 10:57:46;;;;;;;;;;;16.30;96.00;;;;;;4331124;33;43366;-81
2021/10/20 11:00:19;;;;;;;;;;;16.30;96.00;;;;;;4317578;33;43177;-81
2021/10/20 11:02:51;;;;;;;;;;;16.30;96.10;;;;;;4330339;33;45815;-82
2021/10/20 11:05:23;;;;;;;;;;;16.30;96.10;;;;;;4317270;33;44063;-81
2021/10/20 11:07:51;;;;;;;;;;;16.30;96.20;;;;;;4330425;33;42566;-82
2021/10/20 11:10:19;;;;;;;;;;;16.30;96.20;;;;;;4330574;33;43884;-81
2021/10/20 11:12:47;;;;;;;;;;;16.30;96.20;;;;;;4330716;33;43376;-81
2021/10/20 11:15:15;;;;;;;;;;;16.30;96.20;;;;;;4329435;33;43088;-82
2021/10/20 11:17:46;;;;;;;;;;;16.30;96.30;;;;;;4331080;33;20006;-81
2021/10/20 11:20:15;;;;;;;;;;;16.30;96.30;;;;;;4330673;33;43361;-81
2021/10/20 11:22:49;;;;;;;;;;;16.30;96.40;;;;;;4317738;33;43808;-81
2021/10/20 11:25:17;;;;;;;;;;;16.30;96.40;;;;;;4317293;33;43887;-81
2021/10/20 11:27:47;;;;;;;;;;;16.30;96.40;;;;;;4330550;33;44230;-83
2021/10/20 11:30:15;;;;;;;;;;;16.30;96.30;;;;;;4330199;33;44136;-82
2021/10/20 11:32:44;;;;;;;;;;;16.40;96.40;;;;;;4329624;33;44058;-81
2021/10/20 11:35:19;;;;;;;;;;;16.30;96.40;;;;;;4330144;33;43145;-81
2021/10/20 11:38:05;;;;;;;;;;;16.30;96.40;;;;;;4330278;33;43963;-80
2021/10/20 11:40:37;;;;;;;;;;;16.30;96.40;;;;;;4330536;33;43556;-81
2021/10/20 11:43:18;;;;;;;;;;;16.30;96.30;;;;;;4329459;33;43952;-81
2021/10/20 11:45:49;;;;;;;;;;;16.40;96.40;;;;;;4329355;33;44729;-81
2021/10/20 11:48:23;;;;;;;;;;;16.30;96.40;;;;;;4330293;33;20422;-81
2021/10/20 11:50:58;;;;;;;;;;;16.30;96.40;;;;;;4317472;33;43278;-80
2021/10/20 11:53:28;;;;;;;;;;;16.40;96.50;;;;;;4329456;33;44096;-82
2021/10/20 11:55:58;;;;;;;;;;;16.30;96.40;;;;;;4330579;33;43672;-81
2021/10/20 11:58:32;;;;;;;;;;;16.40;96.50;;;;;;4330360;33;44337;-82
2021/10/20 12:01:05;;;;;;;;;;;16.40;96.50;;;;;;4317465;33;44245;-81
2021/10/20 12:03:42;;;;;;;;;;;16.40;96.50;;;;;;4329804;33;44266;-81
2021/10/20 12:06:11;;;;;;;;;;;16.40;96.60;;;;;;4330305;33;43968;-81
2021/10/20 12:08:50;;;;;;;;;;;16.40;96.50;;;;;;4328686;33;45812;-81
2021/10/20 12:11:26;;;;;;;;;;;16.40;96.60;;;;;;4317084;33;45168;-81
2021/10/20 12:14:03;;;;;;;;;;;16.40;96.50;;;;;;4330919;33;43418;-81
2021/10/20 12:16:33;;;;;;;;;;;16.40;96.60;;;;;;4333098;33;43749;-81
2021/10/20 12:19:06;;;;;;;;;;;16.40;96.60;;;;;;4333599;33;20013;-81
2021/10/20 12:21:48;;;;;;;;;;;16.40;96.60;;;;;;4331602;33;44061;-81
2021/10/20 12:24:18;;;;;;;;;;;16.40;96.70;;;;;;4332030;33;46144;-81
2021/10/20 12:26:51;;;;;;;;;;;16.50;96.80;;;;;;4332573;33;44020;-81
2021/10/20 12:29:24;;;;;;;;;;;16.50;96.80;;;;;;4332756;33;42706;-81
2021/10/20 12:31:58;;;;;;;;;;;16.50;96.80;;;;;;4319324;33;43457;-81
2021/10/20 12:34:36;;;;;;;;;;;16.40;96.70;;;;;;4332934;33;43979;-81
2021/10/20 12:37:09;;;;;;;;;;;16.50;96.80;;;;;;4332897;33;44594;-81
2021/10/20 12:39:44;;;;;;;;;;;16.50;96.80;;;;;;4332671;33;45036;-80
2021/10/20 12:42:16;;;;;;;;;;;16.60;96.80;;;;;;4319847;33;43946;-81
2021/10/20 12:44:55;;;;;;;;;;;16.50;96.70;;;;;;4332397;33;44943;-81
2021/10/20 12:47:26;;;;;;;;;;;16.50;96.80;;;;;;4319766;33;43434;-81
2021/10/20 12:50:03;;;;;;;;;;;16.60;96.80;;;;;;4331142;33;43582;-82
2021/10/20 12:52:36;;;;;;;;;;;16.50;96.80;;;;;;4319517;33;43961;-81
2021/10/20 12:55:04;;;;;;;;;;;16.60;96.80;;;;;;4318997;33;44193;-81
2021/10/20 12:57:37;;;;;;;;;;;16.60;96.80;;;;;;4332376;33;43477;-81
2021/10/20 13:00:17;;;;;;;;;;;16.60;96.80;;;;;;4331465;33;43350;-81
2021/10/20 13:03:01;;;;;;;;;;;16.60;96.90;;;;;;4331896;33;44207;-81
2021/10/20 13:05:36;;;;;;;;;;;16.60;96.90;;;;;;4319404;33;43473;-82
2021/10/20 13:08:13;;;;;;;;;;;16.60;96.90;;;;;;4319241;33;43917;-82
2021/10/20 13:10:55;;;;;;;;;;;16.60;96.90;;;;;;4332366;33;44798;-82
2021/10/20 13:13:25;;;;;;;;;;;16.60;96.90;;;;;;4331193;33;44058;-81
2021/10/20 13:15:59;;;;;;;;;;;16.60;97.00;;;;;;4318895;33;43982;-81
2021/10/20 13:18:37;;;;;;;;;;;16.60;97.00;;;;;;4318708;33;42766;-80
2021/10/20 13:21:15;;;;;;;;;;;16.60;97.00;;;;;;4333113;33;20064;-81
2021/10/20 13:23:54;;;;;;;;;;;16.60;97.00;;;;;;4330758;33;42816;-81
2021/10/20 13:26:26;;;;;;;;;;;16.60;97.20;;;;;;4318425;33;45691;-81
2021/10/20 13:29:07;;;;;;;;;;;16.60;97.10;;;;;;4332069;33;44350;-81
2021/10/20 13:31:40;;;;;;;;;;;16.60;97.10;;;;;;4330926;33;44493;-82
2021/10/20 13:34:21;;;;;;;;;;;16.60;97.10;;;;;;4318553;33;45610;-81
2021/10/20 13:36:52;;;;;;;;;;;16.60;97.20;;;;;;4331564;33;43490;-81
2021/10/20 13:39:25;;;;;;;;;;;16.60;97.20;;;;;;4318527;33;42348;-81
2021/10/20 13:42:07;;;;;;;;;;;16.60;97.30;;;;;;4330940;33;46073;-81
2021/10/20 13:44:34;;;;;;;;;;;16.60;97.30;;;;;;4318960;33;43356;-81
2021/10/20 13:47:09;;;;;;;;;;;16.60;97.60;;;;;;4330412;33;43498;-82
2021/10/20 13:49:59;;;;;;;;;;;16.60;97.30;;;;;;4319928;33;43122;-82
2021/10/20 13:52:34;;;;;;;;;;;16.60;97.30;;;;;;4331999;33;20006;-81
2021/10/20 13:55:16;;;;;;;;;;;16.70;97.40;;;;;;4318447;33;43936;-81
2021/10/20 13:57:48;;;;;;;;;;;16.60;97.50;;;;;;4330542;33;43745;-81
2021/10/20 14:00:29;;;;;;;;;;;16.70;97.40;;;;;;4318664;33;44023;-81
2021/10/20 14:03:02;;;;;;;;;;;16.70;97.40;;;;;;4331170;33;43485;-81
2021/10/20 14:05:39;;;;;;;;;;;16.70;97.40;;;;;;4331546;33;42910;-82
2021/10/20 14:08:08;;;;;;;;;;;16.70;97.50;;;;;;4330287;33;44227;-82
2021/10/20 14:10:47;;;;;;;;;;;16.70;97.40;;;;;;4331317;33;43780;-81
2021/10/20 14:13:25;;;;;;;;;;;16.70;97.50;;;;;;4330738;33;43898;-81
2021/10/20 14:15:54;;;;;;;;;;;16.70;97.50;;;;;;4331474;33;45772;-81
2021/10/20 14:18:32;;;;;;;;;;;16.70;97.50;;;;;;4330388;33;44742;-81
2021/10/20 14:21:11;;;;;;;;;;;16.70;97.40;;;;;;4317789;33;42498;-81
2021/10/20 14:23:47;;;;;;;;;;;16.70;97.40;;;;;;4331627;33;20140;-82
2021/10/20 14:26:25;;;;;;;;;;;16.70;97.50;;;;;;4318039;33;43740;-81
2021/10/20 14:29:03;;;;;;;;;;;16.80;97.90;;;;;;4330076;33;44114;-81
2021/10/20 14:31:41;;;;;;;;;;;16.80;97.50;;;;;;4330156;33;45071;-81
2021/10/20 14:34:19;;;;;;;;;;;16.70;97.40;;;;;;4331171;33;42817;-82
2021/10/20 14:36:57;;;;;;;;;;;16.80;97.60;;;;;;4317277;33;45799;-83
2021/10/20 14:39:30;;;;;;;;;;;16.80;97.40;;;;;;4330203;33;42468;-81
2021/10/20 14:42:08;;;;;;;;;;;16.80;97.40;;;;;;4331244;33;43530;-81
2021/10/20 14:44:35;;;;;;;;;;;16.80;97.40;;;;;;4331106;33;42977;-81
2021/10/20 14:47:08;;;;;;;;;;;16.80;97.40;;;;;;4317787;33;44620;-81
2021/10/20 14:49:38;;;;;;;;;;;16.80;97.40;;;;;;4317528;33;44273;-81
2021/10/20 14:52:16;;;;;;;;;;;16.80;97.40;;;;;;4330418;33;45203;-81